ロメ の空港の天気 - METARとTAF

ロメ空港 ( DXXX / LFW ) - トーゴ ロメ
飛行場実況気象(Metar)
観測時間10/24 02:00 GMT (10/24 02:00 UTC)
風向・風速北北東 2m/s
視程8000m
天気現象弱い雨
全天の8割程度の雲 雲底高度 300m
気温25℃
湿度94%
気圧1013hPa
METARDXXX 240200Z 02004KT 8000 -RA BKN010 25/24 Q1013 NOSIG
過去の天気等 Google飛行場航空写真 Wunderground天気予報

過去48時間のMETAR

飛行場予報(TAF)
発表時間: 10/23 23:00 GMT (10/23 23:00 UTC)
予報対象時間: 24日0時 GMT ~ 25日6時 GMT
風向・風速不定 2m/s
視程10km以上
少しの雲 雲底高度 300m
24日3時 GMT ~ 24日9時 GMT に 確率 30% で一時的に
視程4000m
天気現象雷雨
全天の8割程度の雲 雲底高度 300m
少しの積乱雲 雲底高度 610m
24日10時 GMT ~ 24日12時 GMT に徐々に
風向・風速南南西 5m/s
TAF DXXX 232300Z 2400/2506 VRB03KT 9999 FEW010
PROB30 TEMPO 2403/2409 4000 TSRA BKN010 FEW020CB
BECMG 2410/2412 20010KT